Time;durP1;ratioP1;P1;durP2;ratioP2;P2;SDS_P1;SDS_P2;PMS_P1;PMS_P2;Temp;Humidity;BMP_temperature;BMP_pressure;BME280_temperature;BME280_humidity;BME280_pressure;Samples;Min_cycle;Max_cycle;Signal;HPM_P1;HPM_P2
2022/08/27 00:00:46;;;;;;;13.80;10.32;;;;;;;27.57;52.22;100527.03;4991842;28;20387;-81
2022/08/27 00:03:13;;;;;;;17.05;10.70;;;;;;;26.94;52.00;100430.97;4973050;28;20054;-82
2022/08/27 00:05:41;;;;;;;22.92;10.45;;;;;;;27.36;52.10;100493.22;4968943;28;20495;-81
2022/08/27 00:08:11;;;;;;;14.10;10.90;;;;;;;27.71;51.64;100543.84;4969466;28;20062;-81
2022/08/27 00:10:39;;;;;;;14.68;9.75;;;;;;;27.62;51.87;100535.31;4968938;28;20047;-81
2022/08/27 00:13:06;;;;;;;15.35;9.98;;;;;;;27.74;51.81;100543.34;4970569;28;20198;-81
2022/08/27 00:15:33;;;;;;;15.10;11.25;;;;;;;27.59;51.31;100529.50;4968889;28;20054;-80
2022/08/27 00:17:59;;;;;;;13.80;9.38;;;;;;;27.73;52.22;100551.78;4968927;28;20403;-80
2022/08/27 00:20:27;;;;;;;19.88;11.65;;;;;;;27.38;52.49;100509.28;4968759;28;20210;-82
2022/08/27 00:22:53;;;;;;;13.15;10.88;;;;;;;27.57;52.33;100561.66;4969027;28;20077;-80
2022/08/27 00:25:21;;;;;;;11.25;9.88;;;;;;;27.52;52.48;100561.56;4970086;28;20050;-80
2022/08/27 00:27:48;;;;;;;14.52;11.30;;;;;;;27.36;52.53;100547.72;4968596;28;20063;-80
2022/08/27 00:30:18;;;;;;;13.77;9.70;;;;;;;27.05;51.90;100487.25;4969074;28;20047;-81
2022/08/27 00:32:45;;;;;;;17.00;11.57;;;;;;;27.51;51.95;100559.94;4968721;28;20058;-81
2022/08/27 00:35:14;;;;;;;17.45;9.80;;;;;;;27.44;51.82;100536.38;4968776;28;20054;-82
2022/08/27 00:37:42;;;;;;;16.30;9.32;;;;;;;27.14;51.45;100478.66;4968154;28;20368;-79
2022/08/27 00:40:13;;;;;;;15.90;9.98;;;;;;;27.24;51.88;100503.38;4959756;28;20050;-81
2022/08/27 00:42:41;;;;;;;16.73;10.98;;;;;;;27.51;52.27;100549.03;4952289;28;20492;-81
2022/08/27 00:45:09;;;;;;;16.75;9.38;;;;;;;27.28;52.69;100529.03;4952557;28;20059;-79
2022/08/27 00:47:42;;;;;;;14.55;10.73;;;;;;;27.39;52.47;100557.28;4969531;28;20051;-79
2022/08/27 00:50:18;;;;;;;23.48;11.85;;;;;;;27.34;52.56;100549.03;4952674;28;20082;-80
2022/08/27 00:52:53;;;;;;;23.27;11.07;;;;;;;27.31;52.88;100555.81;4951973;28;20510;-80
2022/08/27 00:55:24;;;;;;;10.70;9.10;;;;;;;27.27;52.77;100549.22;4969323;28;20099;-81
2022/08/27 00:58:24;;;;;;;13.73;9.18;;;;;;;26.74;52.83;100469.59;4952562;28;20051;-79
2022/08/27 01:00:51;;;;;;;11.65;10.48;;;;;;;27.27;52.91;100549.22;4932812;28;20059;-81
2022/08/27 01:03:19;;;;;;;12.65;9.52;;;;;;;27.21;52.19;100526.50;4961253;28;20053;-80
2022/08/27 01:05:48;;;;;;;17.10;11.32;;;;;;;27.39;51.96;100540.94;4971222;28;20054;-80
2022/08/27 01:08:19;;;;;;;15.68;10.85;;;;;;;27.48;51.85;100553.09;4971820;28;20478;-80
2022/08/27 01:10:47;;;;;;;13.60;9.27;;;;;;;27.40;51.70;100548.03;4967867;28;20061;-80
2022/08/27 01:13:18;;;;;;;15.40;10.13;;;;;;;27.28;51.58;100531.78;4968038;28;20059;-80
2022/08/27 01:15:46;;;;;;;17.65;10.63;;;;;;;27.28;51.56;100529.91;4968829;28;20353;-79
2022/08/27 01:18:13;;;;;;;13.27;10.50;;;;;;;27.32;52.37;100541.09;4968118;28;20069;-80
2022/08/27 01:20:53;;;;;;;16.10;11.70;;;;;;;27.22;52.23;100538.22;4967873;28;20047;-80
2022/08/27 01:23:32;;;;;;;20.80;11.07;;;;;;;27.28;52.92;100561.75;4967656;28;20069;-80
2022/08/27 01:26:01;;;;;;;12.48;8.73;;;;;;;27.09;52.71;100539.38;4967743;28;20475;-80
2022/08/27 01:28:30;;;;;;;11.70;9.95;;;;;;;26.84;52.79;100509.78;4967445;28;20051;-80
2022/08/27 01:31:06;;;;;;;11.55;9.80;;;;;;;26.99;53.02;100541.91;4967882;28;20138;-81
2022/08/27 01:33:33;;;;;;;13.82;11.02;;;;;;;27.08;53.18;100563.03;4967542;28;20495;-80
2022/08/27 01:35:59;;;;;;;16.13;11.27;;;;;;;26.93;53.21;100541.00;4967453;28;20057;-81
2022/08/27 01:38:27;;;;;;;14.82;9.45;;;;;;;27.08;52.53;100557.59;4967417;28;20046;-80
2022/08/27 01:40:57;;;;;;;11.90;9.40;;;;;;;27.05;52.08;100552.63;5004263;28;20073;-79
2022/08/27 01:43:26;;;;;;;13.35;9.68;;;;;;;27.13;52.35;100569.66;5005879;28;20464;-80
2022/08/27 01:45:53;;;;;;;13.30;11.25;;;;;;;26.92;52.91;100539.34;5006658;28;20061;-81
2022/08/27 01:48:21;;;;;;;14.38;9.35;;;;;;;27.03;52.83;100557.50;5006647;28;20057;-80
2022/08/27 01:50:48;;;;;;;13.32;9.75;;;;;;;27.08;52.42;100557.59;5006409;28;20049;-80
2022/08/27 01:53:19;;;;;;;15.65;10.85;;;;;;;27.12;52.13;100562.56;5006070;28;20418;-79
2022/08/27 01:55:48;;;;;;;13.60;9.65;;;;;;;27.15;52.50;100562.06;5006404;28;20046;-80
2022/08/27 01:58:17;;;;;;;17.05;10.32;;;;;;;26.92;53.02;100550.25;5006332;28;20655;-79
2022/08/27 02:00:47;;;;;;;13.45;10.50;;;;;;;26.90;52.95;100560.56;4967352;28;20051;-80
2022/08/27 02:03:21;;;;;;;15.00;10.73;;;;;;;26.62;53.00;100520.56;4952139;28;20932;-80
2022/08/27 02:05:48;;;;;;;12.07;10.18;;;;;;;26.84;53.26;100558.81;4931895;29;20043;-79
2022/08/27 02:08:16;;;;;;;13.15;10.80;;;;;;;26.74;53.21;100545.84;4931961;29;20051;-80
2022/08/27 02:10:45;;;;;;;13.57;9.35;;;;;;;26.78;53.25;100551.63;4931707;29;20059;-80
2022/08/27 02:13:12;;;;;;;15.90;10.85;;;;;;;26.72;53.43;100549.88;4932300;29;20067;-80
2022/08/27 02:15:40;;;;;;;21.30;10.50;;;;;;;26.61;53.38;100536.06;4931518;29;20077;-81
2022/08/27 02:18:08;;;;;;;13.85;10.02;;;;;;;26.68;53.69;100546.81;4931650;29;20098;-80
2022/08/27 02:20:35;;;;;;;9.82;8.68;;;;;;;26.76;53.93;100564.66;4931813;29;20129;-80
2022/08/27 02:23:03;;;;;;;10.63;8.73;;;;;;;26.68;54.02;100562.31;4947450;28;20051;-79
2022/08/27 02:25:30;;;;;;;11.20;9.27;;;;;;;26.64;53.97;100560.09;4931993;29;20078;-80
2022/08/27 02:27:58;;;;;;;13.07;10.40;;;;;;;26.60;54.07;100564.38;4931703;29;20062;-80
2022/08/27 02:30:27;;;;;;;11.75;8.60;;;;;;;26.49;54.33;100548.06;4948822;28;20054;-80
2022/08/27 02:32:54;;;;;;;14.95;9.20;;;;;;;26.58;54.36;100568.38;4931471;28;20055;-79
2022/08/27 02:35:23;;;;;;;13.00;9.73;;;;;;;26.58;54.20;100569.25;4930913;28;20491;-80
2022/08/27 02:37:51;;;;;;;16.73;10.43;;;;;;;26.30;54.08;100533.81;4931442;29;20059;-80
2022/08/27 02:40:20;;;;;;;13.77;10.00;;;;;;;26.59;54.11;100567.34;4944435;28;20047;-80
2022/08/27 02:42:47;;;;;;;11.20;8.95;;;;;;;26.56;54.23;100568.66;4950630;28;20065;-81
2022/08/27 02:45:14;;;;;;;10.70;9.45;;;;;;;26.37;53.93;100524.44;4950396;28;20054;-80
2022/08/27 02:47:41;;;;;;;14.50;10.38;;;;;;;26.58;53.52;100561.06;4967577;28;20518;-80
2022/08/27 02:50:09;;;;;;;12.18;10.82;;;;;;;26.59;53.83;100568.16;4966444;28;20054;-79
2022/08/27 02:52:36;;;;;;;13.52;10.70;;;;;;;26.46;53.86;100538.50;4950352;28;20058;-80
2022/08/27 02:55:04;;;;;;;18.70;9.70;;;;;;;26.57;53.19;100544.97;4966307;28;20047;-81
2022/08/27 02:57:31;;;;;;;13.63;9.07;;;;;;;26.57;53.47;100540.34;4950626;28;20073;-80
2022/08/27 03:00:06;;;;;;;18.52;9.98;;;;;;;26.60;53.73;100547.19;4961421;28;20058;-79
2022/08/27 03:02:33;;;;;;;14.77;11.52;;;;;;;26.28;54.04;100504.13;4966028;28;20147;-78
2022/08/27 03:05:00;;;;;;;14.13;10.18;;;;;;;26.59;54.61;100553.72;4966478;28;20115;-79
2022/08/27 03:07:27;;;;;;;14.63;10.15;;;;;;;26.48;54.26;100543.66;4966355;28;20054;-79
2022/08/27 03:09:53;;;;;;;12.40;10.75;;;;;;;26.38;54.71;100530.69;4969531;28;20580;-79
2022/08/27 03:12:20;;;;;;;13.52;9.70;;;;;;;26.45;54.64;100555.88;4967197;28;20415;-80
2022/08/27 03:14:50;;;;;;;15.90;9.75;;;;;;;26.19;54.87;100511.00;4966425;28;20086;-79
2022/08/27 03:20:03;;;;;;;12.70;9.05;;;;;;;26.51;54.16;100546.75;4967910;28;20051;-80
2022/08/27 03:22:30;;;;;;;11.05;9.05;;;;;;;26.39;54.28;100537.81;4965982;28;20051;-79
2022/08/27 03:24:57;;;;;;;15.30;10.05;;;;;;;26.19;54.91;100514.56;4965994;28;20057;-80
2022/08/27 03:27:23;;;;;;;10.85;9.43;;;;;;;26.32;54.65;100553.44;4965807;28;20062;-80
2022/08/27 03:29:50;;;;;;;13.27;9.50;;;;;;;26.29;55.11;100543.03;4966381;28;20062;-79
2022/08/27 03:32:17;;;;;;;15.07;10.52;;;;;;;26.28;55.06;100550.38;4966199;28;20057;-79
2022/08/27 03:34:43;;;;;;;14.07;10.95;;;;;;;26.17;55.02;100530.31;4965738;28;20039;-79
2022/08/27 03:37:10;;;;;;;15.93;11.45;;;;;;;25.19;55.27;100387.13;4966437;28;20709;-80
2022/08/27 03:39:37;;;;;;;10.40;9.30;;;;;;;26.28;55.22;100550.38;4961200;28;20046;-80
2022/08/27 03:42:04;;;;;;;15.25;11.27;;;;;;;26.25;55.18;100558.22;4949849;28;20414;-79
2022/08/27 03:44:31;;;;;;;14.40;9.13;;;;;;;26.07;55.04;100524.66;4949890;28;20059;-81
2022/08/27 03:46:58;;;;;;;19.92;11.00;;;;;;;26.15;55.00;100548.75;4953513;28;20055;-79
2022/08/27 03:49:25;;;;;;;15.80;10.65;;;;;;;26.16;55.22;100550.41;4953437;28;20357;-81
2022/08/27 03:51:52;;;;;;;13.50;11.02;;;;;;;26.03;55.17;100533.56;4953612;28;20059;-80
2022/08/27 03:54:19;;;;;;;11.85;9.10;;;;;;;26.14;55.02;100551.72;4953759;28;20122;-79
2022/08/27 03:56:46;;;;;;;11.38;10.23;;;;;;;25.98;55.07;100523.38;4953167;28;20047;-79
2022/08/27 03:59:14;;;;;;;16.23;11.38;;;;;;;25.89;55.26;100505.78;4957705;28;20053;-79
2022/08/27 04:01:42;;;;;;;16.73;10.70;;;;;;;26.18;55.25;100550.19;4974511;28;20060;-79
2022/08/27 04:04:09;;;;;;;13.82;9.77;;;;;;;26.10;54.97;100537.78;4991905;28;20042;-78
2022/08/27 04:06:36;;;;;;;15.00;11.43;;;;;;;26.17;55.13;100552.06;4992059;28;20054;-78
2022/08/27 04:09:03;;;;;;;14.10;10.45;;;;;;;26.15;55.09;100551.50;4991735;28;20394;-81
2022/08/27 04:11:33;;;;;;;14.70;10.32;;;;;;;26.11;54.98;100544.88;4991917;28;20068;-81
2022/08/27 04:14:03;;;;;;;13.60;10.10;;;;;;;26.13;54.85;100548.16;4991996;28;20060;-80
2022/08/27 04:16:50;;;;;;;14.68;11.20;;;;;;;26.08;55.10;100542.63;4994597;28;20436;-82
2022/08/27 04:19:18;;;;;;;11.68;10.45;;;;;;;26.10;54.92;100548.66;4991976;28;20053;-79
2022/08/27 04:21:47;;;;;;;12.23;9.52;;;;;;;26.08;55.05;100548.06;4992182;28;20070;-80
2022/08/27 04:24:14;;;;;;;14.80;10.68;;;;;;;26.10;55.08;100551.38;4991566;28;20089;-80
2022/08/27 04:26:44;;;;;;;10.20;9.02;;;;;;;26.01;55.25;100548.19;5007891;28;20038;-81
2022/08/27 04:29:11;;;;;;;13.20;9.77;;;;;;;26.06;55.30;100544.75;4991467;28;20477;-79
2022/08/27 04:31:37;;;;;;;12.10;8.65;;;;;;;26.08;55.06;100542.63;4991806;28;20497;-80
2022/08/27 04:34:06;;;;;;;17.25;12.02;;;;;;;25.84;55.11;100505.66;4992863;28;20256;-80
2022/08/27 04:36:33;;;;;;;15.38;9.75;;;;;;;26.04;55.33;100541.44;4970304;28;20537;-80
2022/08/27 04:39:00;;;;;;;21.48;11.00;;;;;;;26.12;55.38;100560.13;4974313;28;20525;-80
2022/08/27 04:41:27;;;;;;;10.70;8.93;;;;;;;25.41;55.38;100439.75;4987691;28;20056;-80
2022/08/27 04:43:56;;;;;;;15.43;11.25;;;;;;;26.06;55.29;100560.25;4979855;28;20050;-81
2022/08/27 04:46:26;;;;;;;15.35;11.18;;;;;;;25.89;55.54;100544.69;4990865;28;20050;-81
2022/08/27 04:48:55;;;;;;;12.68;10.40;;;;;;;25.99;55.75;100561.22;4991062;28;20058;-80
2022/08/27 04:51:22;;;;;;;15.65;10.43;;;;;;;25.88;55.84;100553.09;4984724;28;20207;-80
2022/08/27 04:53:50;;;;;;;12.98;10.63;;;;;;;25.87;55.68;100552.25;4971342;28;20038;-81
2022/08/27 04:56:21;;;;;;;13.35;10.15;;;;;;;25.80;55.45;100533.31;4987297;28;20050;-80
2022/08/27 04:58:49;;;;;;;12.88;10.68;;;;;;;25.98;55.65;100562.28;4989880;28;20054;-81
2022/08/27 05:01:21;;;;;;;15.70;9.10;;;;;;;25.96;55.91;100556.25;4990337;28;20058;-81
2022/08/27 05:03:48;;;;;;;12.55;10.95;;;;;;;25.97;55.81;100557.06;4990007;28;20057;-80
2022/08/27 05:06:16;;;;;;;14.07;11.27;;;;;;;25.95;55.61;100551.06;4989988;28;20498;-81
2022/08/27 05:08:43;;;;;;;13.32;9.45;;;;;;;26.04;55.64;100563.22;4990026;28;20131;-80
2022/08/27 05:11:13;;;;;;;14.55;10.85;;;;;;;26.03;55.87;100561.56;4993378;28;20054;-81
2022/08/27 05:13:45;;;;;;;20.85;10.18;;;;;;;25.99;56.17;100555.75;5015991;28;20093;-80
2022/08/27 05:16:15;;;;;;;;;;;;;;;25.99;55.91;100568.53;4993975;28;20057;-81
2022/08/27 05:18:42;;;;;;;13.80;10.05;;;;;;;25.94;56.23;100561.09;5007838;28;19922;-81
2022/08/27 05:21:21;;;;;;;10.85;9.38;;;;;;;26.05;56.19;100570.31;4977894;28;20077;-80
2022/08/27 05:23:48;;;;;;;10.63;9.60;;;;;;;26.01;56.00;100558.25;4968309;28;20050;-81
2022/08/27 05:26:15;;;;;;;12.65;10.18;;;;;;;26.10;55.82;100567.72;4970614;28;20061;-82
2022/08/27 05:28:43;;;;;;;13.60;10.45;;;;;;;25.89;55.67;100527.53;4988056;28;20042;-80
2022/08/27 05:31:12;;;;;;;15.10;9.93;;;;;;;26.10;55.89;100562.25;4971092;28;20311;-81
2022/08/27 05:33:41;;;;;;;10.00;8.93;;;;;;;26.07;55.84;100546.44;4970774;28;20042;-80
2022/08/27 05:36:19;;;;;;;10.70;9.57;;;;;;;26.05;55.96;100543.13;4966379;28;20051;-80
2022/08/27 05:38:50;;;;;;;15.55;10.68;;;;;;;26.27;56.13;100573.22;4952404;28;20402;-80
2022/08/27 05:41:26;;;;;;;15.00;9.80;;;;;;;26.26;55.74;100557.13;4970775;28;20089;-80
2022/08/27 05:44:03;;;;;;;15.52;9.82;;;;;;;26.38;55.75;100564.16;4971187;28;20085;-80
2022/08/27 05:46:49;;;;;;;21.60;10.50;;;;;;;25.54;55.09;100438.69;4973140;28;20053;-81
2022/08/27 05:49:19;;;;;;;12.07;9.35;;;;;;;26.47;55.74;100578.25;4970107;28;20418;-79
2022/08/27 05:51:47;;;;;;;12.07;10.20;;;;;;;26.52;55.15;100575.59;4970193;28;20050;-80
2022/08/27 05:54:18;;;;;;;12.40;9.63;;;;;;;26.34;55.82;100545.88;4970390;28;20054;-80
2022/08/27 05:56:46;;;;;;;16.25;10.18;;;;;;;26.37;55.10;100557.09;4969777;28;20057;-80
2022/08/27 06:02:01;;;;;;;15.85;9.73;;;;;;;26.70;54.66;100571.06;5006650;28;20060;-80
2022/08/27 06:04:28;;;;;;;14.77;9.95;;;;;;;26.71;54.89;100573.56;5006998;28;20045;-79
2022/08/27 06:06:55;;;;;;;12.27;9.52;;;;;;;26.72;55.60;100574.38;5006043;28;20064;-79
2022/08/27 06:09:25;;;;;;;13.50;9.55;;;;;;;26.70;56.16;100581.97;5005967;28;20049;-79
2022/08/27 06:11:54;;;;;;;11.87;8.77;;;;;;;26.69;55.57;100583.03;5005844;28;20077;-79
2022/08/27 06:14:21;;;;;;;14.32;9.23;;;;;;;26.42;54.50;100534.59;5005646;28;20112;-79
2022/08/27 06:16:48;;;;;;;14.23;11.50;;;;;;;26.78;54.13;100585.13;5005607;28;20246;-79
2022/08/27 06:19:15;;;;;;;18.65;8.98;;;;;;;26.80;54.55;100587.63;5005631;28;20501;-82
2022/08/27 06:21:43;;;;;;;15.90;11.38;;;;;;;26.84;54.54;100595.03;5005627;28;20056;-78
2022/08/27 06:24:11;;;;;;;18.85;10.77;;;;;;;26.53;54.50;100527.44;4995166;28;20054;-81
2022/08/27 06:26:41;;;;;;;14.57;10.35;;;;;;;26.91;54.25;100588.63;5002273;28;20046;-80
2022/08/27 06:29:08;;;;;;;18.90;9.75;;;;;;;27.00;54.21;100587.97;4986187;28;20058;-80
2022/08/27 06:31:39;;;;;;;16.15;10.38;;;;;;;27.00;53.59;100582.53;4986991;28;20142;-80
2022/08/27 06:34:08;;;;;;;21.25;10.10;;;;;;;27.11;54.01;100599.03;4985923;28;20058;-80
2022/08/27 06:36:39;;;;;;;11.70;9.57;;;;;;;27.03;53.56;100582.03;4986929;28;20042;-82
2022/08/27 06:39:07;;;;;;;16.02;10.50;;;;;;;27.19;53.81;100585.06;5001923;28;20439;-79
2022/08/27 06:41:34;;;;;;;11.73;9.25;;;;;;;27.30;52.73;100591.50;5002233;28;20510;-80
2022/08/27 06:44:01;;;;;;;12.07;10.77;;;;;;;27.13;53.30;100569.66;5001713;28;20758;-80
2022/08/27 06:46:28;;;;;;;11.10;9.65;;;;;;;27.13;53.44;100566.94;5002163;28;20061;-79
2022/08/27 06:48:58;;;;;;;15.80;10.05;;;;;;;26.83;53.29;100510.88;5000728;28;20046;-78
2022/08/27 06:51:35;;;;;;;20.30;9.98;;;;;;;27.21;52.91;100564.66;4985723;28;20502;-79
2022/08/27 06:54:06;;;;;;;16.65;10.23;;;;;;;27.26;52.42;100566.66;5001992;28;20479;-79
2022/08/27 06:56:34;;;;;;;10.82;8.73;;;;;;;27.23;52.46;100548.03;4986010;28;20128;-80
2022/08/27 06:59:06;;;;;;;13.80;9.73;;;;;;;26.99;52.63;100496.44;4993127;28;20058;-79
2022/08/27 07:01:39;;;;;;;14.82;10.20;;;;;;;26.72;52.25;100460.00;5006264;28;20045;-79
2022/08/27 07:04:09;;;;;;;13.93;9.95;;;;;;;27.52;52.41;100577.94;4999510;28;20046;-80
2022/08/27 07:06:37;;;;;;;19.27;10.57;;;;;;;27.63;52.40;100598.84;4982309;28;20054;-81
2022/08/27 07:09:05;;;;;;;15.75;11.13;;;;;;;27.68;51.74;100594.28;4966096;28;20047;-80
2022/08/27 07:11:32;;;;;;;12.50;9.10;;;;;;;27.83;51.05;100593.69;4966529;28;20046;-80
2022/08/27 07:13:59;;;;;;;13.25;9.27;;;;;;;27.71;50.65;100566.50;4967847;28;20051;-81
2022/08/27 07:16:27;;;;;;;9.40;8.40;;;;;;;27.74;50.30;100567.88;4969842;28;20169;-79
2022/08/27 07:18:56;;;;;;;12.73;9.25;;;;;;;27.77;50.51;100581.03;4966280;28;20517;-80
2022/08/27 07:21:27;;;;;;;10.15;8.05;;;;;;;27.55;50.90;100539.25;4969144;28;20526;-81
2022/08/27 07:23:57;;;;;;;17.75;10.52;;;;;;;28.02;50.37;100598.88;4974583;28;20057;-80
2022/08/27 07:26:24;;;;;;;12.35;9.13;;;;;;;27.92;50.97;100589.47;4985972;28;20051;-80
2022/08/27 07:28:52;;;;;;;13.60;8.95;;;;;;;28.07;49.89;100596.19;4986032;28;20642;-80
2022/08/27 07:31:22;;;;;;;12.65;9.07;;;;;;;27.24;50.37;100473.41;4986240;28;20047;-81
2022/08/27 07:33:49;;;;;;;11.95;9.70;;;;;;;27.99;49.96;100589.28;4985633;28;20410;-80
2022/08/27 07:36:19;;;;;;;11.80;9.25;;;;;;;27.98;49.79;100563.06;4985547;28;20129;-79
2022/08/27 07:38:46;;;;;;;13.48;9.45;;;;;;;28.12;50.25;100599.00;4986018;28;20059;-80
2022/08/27 07:41:26;;;;;;;10.45;9.23;;;;;;;28.17;49.48;100593.59;4985625;28;20426;-81
2022/08/27 07:46:47;;;;;;;15.13;10.63;;;;;;;28.25;49.84;100598.59;4970724;28;20226;-79
2022/08/27 07:49:18;;;;;;;14.43;9.60;;;;;;;28.26;49.91;100605.72;4970635;28;20278;-80
2022/08/27 07:52:03;;;;;;;10.80;8.45;;;;;;;28.08;50.05;100581.47;4983239;28;20148;-81
2022/08/27 07:54:30;;;;;;;9.20;8.07;;;;;;;28.08;49.87;100587.75;4985689;28;20050;-81
2022/08/27 07:56:58;;;;;;;11.65;8.95;;;;;;;28.08;49.95;100576.00;4985426;28;20063;-81
2022/08/27 07:59:26;;;;;;;13.85;9.10;;;;;;;28.16;49.53;100583.78;4989049;28;20049;-80
2022/08/27 08:01:54;;;;;;;10.30;8.43;;;;;;;28.27;49.64;100601.09;5008228;28;20090;-79
2022/08/27 08:04:21;;;;;;;9.20;8.15;;;;;;;28.34;49.99;100605.28;5008138;28;20124;-79
2022/08/27 08:06:49;;;;;;;14.52;8.88;;;;;;;28.42;49.79;100609.47;5007817;28;20077;-79
2022/08/27 08:09:16;;;;;;;14.02;9.77;;;;;;;28.45;49.86;100602.66;5008058;28;20058;-79
2022/08/27 08:11:43;;;;;;;12.18;8.30;;;;;;;28.46;49.64;100601.63;5008290;28;20084;-80
2022/08/27 08:14:10;;;;;;;13.00;9.65;;;;;;;28.49;50.04;100610.13;5007808;28;20080;-79
2022/08/27 08:16:37;;;;;;;15.55;10.27;;;;;;;28.57;49.93;100611.59;5007843;28;20452;-79
2022/08/27 08:19:03;;;;;;;10.65;8.70;;;;;;;28.66;49.38;100604.56;5008048;28;20117;-80
2022/08/27 08:21:30;;;;;;;13.13;9.73;;;;;;;28.66;48.92;100599.13;5007854;28;20041;-78
2022/08/27 08:23:57;;;;;;;16.70;10.10;;;;;;;28.71;49.42;100612.81;4999644;28;20050;-78
2022/08/27 08:26:24;;;;;;;12.07;9.30;;;;;;;28.83;49.32;100620.06;4989786;28;20057;-79
2022/08/27 08:28:51;;;;;;;14.15;9.77;;;;;;;28.76;49.21;100615.63;5004567;28;20049;-78
2022/08/27 08:31:17;;;;;;;17.08;9.80;;;;;;;28.82;48.98;100618.41;4987561;28;20050;-80
2022/08/27 08:33:47;;;;;;;17.50;9.77;;;;;;;28.75;49.18;100608.50;5003936;28;20050;-80
2022/08/27 08:36:15;;;;;;;17.77;9.93;;;;;;;28.89;48.95;100614.38;5004165;28;20489;-79
2022/08/27 08:38:44;;;;;;;24.83;8.82;;;;;;;28.84;49.49;100597.13;5004742;28;20049;-81
2022/08/27 08:41:32;;;;;;;16.02;10.55;;;;;;;28.74;49.02;100579.56;5004754;28;20058;-80
2022/08/27 08:44:24;;;;;;;11.85;9.40;;;;;;;28.95;48.96;100596.13;4987894;28;20054;-80
2022/08/27 08:46:53;;;;;;;12.45;10.73;;;;;;;29.19;48.95;100619.34;5004104;28;20058;-79
2022/08/27 08:49:45;;;;;;;13.75;9.60;;;;;;;28.83;48.97;100562.69;4987843;28;20046;-80
2022/08/27 08:52:23;;;;;;;14.73;10.55;;;;;;;29.21;48.74;100619.09;4987624;28;20573;-80
2022/08/27 08:55:15;;;;;;;16.33;9.73;;;;;;;29.35;48.29;100628.50;5003159;28;20086;-81
2022/08/27 08:58:04;;;;;;;14.25;10.73;;;;;;;28.92;47.77;100558.41;5004148;28;20142;-81
2022/08/27 09:00:31;;;;;;;16.60;9.73;;;;;;;29.12;47.35;100547.66;5007419;28;20065;-81
2022/08/27 09:02:58;;;;;;;14.43;9.82;;;;;;;29.37;47.45;100592.69;5006862;28;20094;-80
2022/08/27 09:05:24;;;;;;;10.90;9.80;;;;;;;29.49;47.63;100606.19;5007211;28;20054;-80
2022/08/27 09:07:56;;;;;;;14.43;8.95;;;;;;;29.24;48.23;100574.00;5007181;28;20409;-80
2022/08/27 09:10:45;;;;;;;13.43;11.32;;;;;;;29.37;47.60;100595.41;5007058;28;20045;-80
2022/08/27 09:13:26;;;;;;;17.73;11.43;;;;;;;29.54;47.83;100611.69;5007241;28;20062;-80
2022/08/27 09:15:57;;;;;;;16.40;8.87;;;;;;;29.61;47.58;100629.53;5006975;28;20050;-81
2022/08/27 09:18:23;;;;;;;;;;;;;;;29.70;47.79;100634.53;5009969;28;20792;-81
2022/08/27 09:21:19;;;;;;;22.15;10.65;;;;;;;29.68;47.53;100604.69;5009134;28;19932;-79
2022/08/27 09:24:24;;;;;;;14.45;11.57;;;;;;;29.90;46.91;100629.19;4998945;28;20073;-81
2022/08/27 09:26:51;;;;;;;18.63;9.93;;;;;;;30.10;47.11;100630.38;4986871;28;20525;-79
2022/08/27 09:29:18;;;;;;;23.50;11.48;;;;;;;29.86;46.62;100562.41;4986953;28;20046;-81
2022/08/27 09:31:57;;;;;;;14.63;10.15;;;;;;;30.28;46.67;100619.03;4986904;28;20104;-81
2022/08/27 09:34:26;;;;;;;14.15;10.13;;;;;;;30.19;46.19;100593.22;5003017;28;20095;-81
2022/08/27 09:37:05;;;;;;;13.18;9.98;;;;;;;30.50;45.53;100628.97;4987022;28;20066;-80
2022/08/27 09:39:40;;;;;;;12.70;10.95;;;;;;;30.53;45.34;100621.03;4987057;28;20190;-79
2022/08/27 09:42:24;;;;;;;16.08;11.27;;;;;;;30.56;44.91;100616.91;5002707;28;20343;-80
2022/08/27 09:44:54;;;;;;;21.45;11.77;;;;;;;30.72;45.36;100613.13;4987571;28;20557;-81
2022/08/27 09:47:22;;;;;;;17.98;11.30;;;;;;;30.86;45.23;100619.78;4986520;28;20054;-79
2022/08/27 09:50:04;;;;;;;14.23;11.70;;;;;;;30.88;45.01;100622.25;4986845;28;20302;-80
2022/08/27 09:52:37;;;;;;;17.50;11.13;;;;;;;30.42;45.08;100537.19;5002728;28;20046;-80
2022/08/27 09:55:05;;;;;;;13.45;11.55;;;;;;;30.72;44.87;100569.28;5003141;28;20058;-81
2022/08/27 09:57:37;;;;;;;15.68;11.07;;;;;;;31.18;44.71;100634.34;5002867;28;20069;-81
2022/08/27 10:00:12;;;;;;;17.13;11.10;;;;;;;31.27;43.91;100619.00;5001048;28;20046;-81
2022/08/27 10:02:49;;;;;;;23.67;11.35;;;;;;;31.43;44.09;100617.91;5003412;28;20417;-81
2022/08/27 10:05:25;;;;;;;21.88;12.25;;;;;;;31.40;43.49;100596.53;5003242;28;20063;-80
2022/08/27 10:07:58;;;;;;;20.05;11.90;;;;;;;31.35;43.64;100549.88;5006242;28;20068;-82
2022/08/27 10:10:32;;;;;;;20.30;12.80;;;;;;;32.01;43.22;100617.56;5005776;28;20050;-81
2022/08/27 10:13:08;;;;;;;17.92;13.48;;;;;;;31.05;43.12;100419.16;5005374;28;20058;-80
2022/08/27 10:16:09;;;;;;;21.13;13.52;;;;;;;32.31;42.96;100600.16;5006188;28;20430;-81
2022/08/27 10:19:17;;;;;;;15.60;11.90;;;;;;;32.44;42.87;100601.47;5004624;28;20052;-81
2022/08/27 10:22:15;;;;;;;18.15;13.68;;;;;;;32.53;42.05;100602.56;4988777;28;20208;-79
2022/08/27 10:25:15;;;;;;;18.02;14.35;;;;;;;32.69;41.90;100589.53;4987512;28;20090;-81
2022/08/27 10:27:57;;;;;;;20.75;14.85;;;;;;;32.86;41.92;100600.13;5002561;28;20096;-81
2022/08/27 10:30:43;;;;;;;14.15;12.23;;;;;;;32.76;41.46;100559.81;4986039;28;20050;-80
2022/08/27 10:33:16;;;;;;;15.30;11.50;;;;;;;32.89;41.97;100601.50;4987614;28;20052;-81
2022/08/27 10:35:59;;;;;;;16.88;13.73;;;;;;;32.35;41.09;100507.81;4986118;28;20140;-81
2022/08/27 10:38:43;;;;;;;19.98;14.43;;;;;;;32.57;41.56;100567.06;5002141;28;20583;-81
2022/08/27 10:41:10;;;;;;;15.07;11.02;;;;;;;32.62;42.57;100608.25;4985948;28;20077;-81
2022/08/27 10:43:48;;;;;;;19.10;13.77;;;;;;;32.47;42.22;100605.56;4985721;28;20050;-80
2022/08/27 10:46:37;;;;;;;22.95;11.85;;;;;;;32.21;42.53;100591.97;4985916;28;20053;-81
2022/08/27 10:49:09;;;;;;;20.00;13.27;;;;;;;32.05;42.23;100580.22;4985801;28;20050;-81
2022/08/27 10:52:01;;;;;;;26.73;13.98;;;;;;;31.93;42.80;100590.66;4985967;28;20053;-82
2022/08/27 10:54:36;;;;;;;18.60;14.30;;;;;;;31.88;42.97;100604.41;4986011;28;20054;-81
2022/08/27 10:57:42;;;;;;;17.65;14.65;;;;;;;31.62;43.51;100615.44;4989952;28;20061;-81
2022/08/27 11:00:38;;;;;;;15.25;12.55;;;;;;;31.36;43.78;100611.03;4984976;28;20776;-81
2022/08/27 11:03:24;;;;;;;21.50;14.37;;;;;;;31.17;44.78;100608.84;4991121;28;20163;-79
2022/08/27 11:06:17;;;;;;;23.00;15.23;;;;;;;30.22;45.45;100466.72;4975047;28;20145;-80
2022/08/27 11:09:28;;;;;;;37.65;19.52;;;;;;;31.12;47.36;100629.94;4975477;28;20046;-80
2022/08/27 11:12:11;;;;;;;29.35;19.38;;;;;;;30.50;47.78;100544.06;4973601;28;20050;-79
2022/08/27 11:14:52;;;;;;;30.02;17.15;;;;;;;30.70;47.97;100609.03;4974004;28;20494;-81
2022/08/27 11:17:28;;;;;;;35.17;19.98;;;;;;;30.49;48.68;100608.13;4973411;28;20435;-82
2022/08/27 11:20:05;;;;;;;32.90;21.08;;;;;;;30.23;49.28;100597.06;4974641;28;20058;-83
2022/08/27 11:22:37;;;;;;;36.03;22.77;;;;;;;30.08;49.46;100597.00;4976408;28;20054;-82
2022/08/27 11:25:26;;;;;;;38.17;23.42;;;;;;;30.17;49.56;100629.09;4955019;28;20055;-80
2022/08/27 11:27:56;;;;;;;34.15;20.38;;;;;;;30.03;49.16;100608.75;4951748;28;20055;-83
2022/08/27 11:30:42;;;;;;;30.40;18.25;;;;;;;29.74;49.27;100614.59;4950705;28;20059;-81
2022/08/27 11:33:21;;;;;;;25.80;17.27;;;;;;;29.95;49.63;100699.53;4966245;28;20491;-82
2022/08/27 11:36:23;;;;;;;31.83;18.85;;;;;;;30.00;49.38;100708.63;4950269;28;20039;-81
2022/08/27 11:39:27;;;;;;;24.10;15.27;;;;;;;29.81;49.66;100718.34;4966258;28;20077;-81
2022/08/27 11:42:17;;;;;;;22.15;18.83;;;;;;;28.79;49.81;100561.53;4965509;28;20070;-81
2022/08/27 11:44:54;;;;;;;28.17;19.52;;;;;;;28.95;50.43;100575.09;4951576;28;20062;-80